createdAt,value
2023-03-03T00:01:54.146Z,96.70
2023-03-03T00:04:21.637Z,96.70
2023-03-03T00:06:48.787Z,96.70
2023-03-03T00:09:15.991Z,96.70
2023-03-03T00:11:43.362Z,96.70
2023-03-03T00:14:28.778Z,96.70
2023-03-03T00:16:57.384Z,96.80
2023-03-03T00:19:24.522Z,96.90
2023-03-03T00:21:52.934Z,96.80
2023-03-03T00:24:37.832Z,96.90
2023-03-03T00:27:27.708Z,96.90
2023-03-03T00:29:57.326Z,96.90
2023-03-03T00:32:26.471Z,96.80
2023-03-03T00:34:56.949Z,96.80
2023-03-03T00:37:31.288Z,96.80
2023-03-03T00:40:25.980Z,96.90
2023-03-03T00:42:55.889Z,96.90
2023-03-03T00:45:41.418Z,96.90
2023-03-03T00:48:25.615Z,96.80
2023-03-03T00:50:58.262Z,96.80
2023-03-03T00:53:28.764Z,96.90
2023-03-03T00:55:57.618Z,96.90
2023-03-03T00:58:27.498Z,97.00
2023-03-03T01:00:56.913Z,97.00
2023-03-03T01:03:31.271Z,96.90
2023-03-03T01:05:59.268Z,96.90
2023-03-03T01:08:26.623Z,96.90
2023-03-03T01:10:57.238Z,96.90
2023-03-03T01:13:28.481Z,96.90
2023-03-03T01:15:55.980Z,96.90
2023-03-03T01:18:23.209Z,96.90
2023-03-03T01:20:51.860Z,97.00
2023-03-03T01:23:18.950Z,96.90
2023-03-03T01:25:45.942Z,96.90
2023-03-03T01:28:12.978Z,96.90
2023-03-03T01:30:40.566Z,96.90
2023-03-03T01:33:08.851Z,96.80
2023-03-03T01:35:36.797Z,97.10
2023-03-03T01:38:04.191Z,96.70
2023-03-03T01:40:32.187Z,96.80
2023-03-03T01:43:01.187Z,96.80
2023-03-03T01:45:42.945Z,96.90
2023-03-03T01:48:18.798Z,96.90
2023-03-03T01:50:52.188Z,97.00
2023-03-03T01:53:39.207Z,97.00
2023-03-03T01:56:08.753Z,97.30
2023-03-03T01:59:05.410Z,97.00
2023-03-03T02:01:34.439Z,96.90
2023-03-03T02:04:02.195Z,96.90
2023-03-03T02:06:38.589Z,97.00
2023-03-03T02:09:17.091Z,97.00
2023-03-03T02:11:47.141Z,97.00
2023-03-03T02:14:14.378Z,97.00
2023-03-03T02:16:44.315Z,97.00
2023-03-03T02:19:38.164Z,97.00
2023-03-03T02:22:05.446Z,97.00
2023-03-03T02:24:41.777Z,97.10
2023-03-03T02:27:09.130Z,97.10
2023-03-03T02:29:36.587Z,97.10
2023-03-03T02:32:06.362Z,97.10
2023-03-03T02:34:48.595Z,97.00
2023-03-03T02:37:19.867Z,97.00
2023-03-03T02:39:47.452Z,96.90
2023-03-03T02:42:27.336Z,96.90
2023-03-03T02:44:57.626Z,97.00
2023-03-03T02:47:25.091Z,97.00
2023-03-03T02:49:52.444Z,97.00
2023-03-03T02:52:19.656Z,97.00
2023-03-03T02:54:48.102Z,97.00
2023-03-03T02:57:15.605Z,96.90
2023-03-03T02:59:42.700Z,96.80
2023-03-03T03:02:16.084Z,96.80
2023-03-03T03:04:43.345Z,96.80
2023-03-03T03:07:15.632Z,96.80
2023-03-03T03:09:42.991Z,96.80
2023-03-03T03:12:10.247Z,96.80
2023-03-03T03:14:37.643Z,96.80
2023-03-03T03:17:06.301Z,96.80
2023-03-03T03:19:36.308Z,96.90
2023-03-03T03:22:04.066Z,97.00
2023-03-03T03:24:33.984Z,97.00
2023-03-03T03:27:05.152Z,97.10
2023-03-03T03:29:32.780Z,97.10
2023-03-03T03:32:00.261Z,97.00
2023-03-03T03:34:27.546Z,97.00
2023-03-03T03:36:56.502Z,97.00
2023-03-03T03:39:26.571Z,97.10
2023-03-03T03:41:54.175Z,97.10
2023-03-03T03:44:21.739Z,97.10
2023-03-03T03:46:48.967Z,97.00
2023-03-03T03:49:16.517Z,97.10
2023-03-03T03:51:43.962Z,97.10
2023-03-03T03:54:14.901Z,97.10
2023-03-03T03:56:43.280Z,97.10
2023-03-03T03:59:10.906Z,97.10
2023-03-03T04:01:39.270Z,97.10
2023-03-03T04:04:06.967Z,97.10
2023-03-03T04:06:35.182Z,97.10
2023-03-03T04:09:04.128Z,97.20
2023-03-03T04:11:32.198Z,97.20
2023-03-03T04:13:59.976Z,97.20
2023-03-03T04:16:27.829Z,97.20
2023-03-03T04:18:55.358Z,97.20
2023-03-03T04:21:22.676Z,97.20
2023-03-03T04:23:51.709Z,97.10
2023-03-03T04:26:19.232Z,96.90
2023-03-03T04:28:47.992Z,96.80
2023-03-03T04:31:15.171Z,96.80
2023-03-03T04:33:42.669Z,96.70
2023-03-03T04:36:10.052Z,96.70
2023-03-03T04:38:38.345Z,96.70
2023-03-03T04:41:05.776Z,96.80
2023-03-03T04:43:36.539Z,96.80
2023-03-03T04:46:05.989Z,96.80
2023-03-03T04:48:33.954Z,96.80
2023-03-03T04:51:01.262Z,96.90
2023-03-03T04:53:28.560Z,96.90
2023-03-03T04:55:56.170Z,96.90
2023-03-03T04:58:24.299Z,96.80
2023-03-03T05:00:57.931Z,96.80
2023-03-03T05:03:27.920Z,96.80
2023-03-03T05:05:55.525Z,96.80
2023-03-03T05:08:22.695Z,96.80
2023-03-03T05:10:54.530Z,96.80
2023-03-03T05:13:21.919Z,96.80
2023-03-03T05:15:53.302Z,96.90
2023-03-03T05:18:20.774Z,96.90
2023-03-03T05:20:48.481Z,96.80
2023-03-03T05:23:17.167Z,96.70
2023-03-03T05:25:44.636Z,96.80
2023-03-03T05:28:12.080Z,96.80
2023-03-03T05:30:39.316Z,96.90
2023-03-03T05:33:07.030Z,96.90
2023-03-03T05:35:35.251Z,97.00
2023-03-03T05:38:05.415Z,97.00
2023-03-03T05:40:33.116Z,97.00
2023-03-03T05:43:00.989Z,97.00
2023-03-03T05:45:28.175Z,97.00
2023-03-03T05:47:55.866Z,97.00
2023-03-03T05:50:24.017Z,97.10
2023-03-03T05:52:52.224Z,97.10
2023-03-03T05:55:20.102Z,97.10
2023-03-03T05:57:47.808Z,97.10
2023-03-03T06:00:19.204Z,97.10
2023-03-03T06:02:46.825Z,97.10
2023-03-03T06:05:14.157Z,97.10
2023-03-03T06:07:41.358Z,97.00
2023-03-03T06:10:09.271Z,97.00
2023-03-03T06:12:39.565Z,97.00
2023-03-03T06:15:08.083Z,96.90
2023-03-03T06:17:35.679Z,97.00
2023-03-03T06:20:04.367Z,97.00
2023-03-03T06:22:31.648Z,97.10
2023-03-03T06:25:02.264Z,97.20
2023-03-03T06:27:33.590Z,97.20
2023-03-03T06:30:00.910Z,97.10
2023-03-03T06:32:37.490Z,97.10
2023-03-03T06:35:07.039Z,97.00
2023-03-03T06:37:34.890Z,97.00
2023-03-03T06:40:06.351Z,97.00
2023-03-03T06:42:36.741Z,97.10
2023-03-03T06:45:43.460Z,97.10
2023-03-03T06:48:10.724Z,97.10
2023-03-03T06:50:39.747Z,97.10
2023-03-03T06:53:16.278Z,97.00
2023-03-03T06:55:45.184Z,97.00
2023-03-03T06:58:15.909Z,97.10
2023-03-03T07:00:45.416Z,97.10
2023-03-03T07:03:19.126Z,97.20
2023-03-03T07:05:46.844Z,97.20
2023-03-03T07:08:17.758Z,97.20
2023-03-03T07:10:46.111Z,97.20
2023-03-03T07:13:34.405Z,97.20
2023-03-03T07:16:12.139Z,97.30
2023-03-03T07:18:54.620Z,97.30
2023-03-03T07:21:27.701Z,97.30
2023-03-03T07:23:57.296Z,97.20
2023-03-03T07:26:33.064Z,97.00
2023-03-03T07:29:02.099Z,96.70
2023-03-03T07:31:36.823Z,96.40
2023-03-03T07:34:37.243Z,96.10
2023-03-03T07:37:18.931Z,96.00
2023-03-03T07:39:50.682Z,95.60
2023-03-03T07:42:29.362Z,95.50
2023-03-03T07:45:30.332Z,95.50
2023-03-03T07:48:22.597Z,95.50
2023-03-03T07:50:50.298Z,95.40
2023-03-03T07:53:30.094Z,95.20
2023-03-03T07:55:57.360Z,95.10
2023-03-03T07:58:43.958Z,95.00
2023-03-03T08:01:40.120Z,95.00
2023-03-03T08:04:21.210Z,94.70
2023-03-03T08:06:58.076Z,94.40
2023-03-03T08:09:36.921Z,94.20
2023-03-03T08:12:07.104Z,94.10
2023-03-03T08:14:36.974Z,94.00
2023-03-03T08:17:40.137Z,93.90
2023-03-03T08:20:35.153Z,93.80
2023-03-03T08:23:02.481Z,93.70
2023-03-03T08:25:29.974Z,93.60
2023-03-03T08:27:57.153Z,93.60
2023-03-03T08:30:24.733Z,93.70
2023-03-03T08:32:52.127Z,93.80
2023-03-03T08:35:19.577Z,94.00
2023-03-03T08:37:49.407Z,94.10
2023-03-03T08:40:16.792Z,94.30
2023-03-03T08:42:44.119Z,94.40
2023-03-03T08:45:11.549Z,94.40
2023-03-03T08:47:39.512Z,94.40
2023-03-03T08:50:07.459Z,94.40
2023-03-03T08:52:34.822Z,94.40
2023-03-03T08:55:02.197Z,94.40
2023-03-03T08:57:30.712Z,94.20
2023-03-03T08:59:58.963Z,94.00
2023-03-03T09:02:26.454Z,93.70
2023-03-03T09:04:54.102Z,93.60
2023-03-03T09:07:21.183Z,93.50
2023-03-03T09:09:49.561Z,93.40
2023-03-03T09:12:28.840Z,93.30
2023-03-03T09:15:03.430Z,93.10
2023-03-03T09:17:34.256Z,92.90
2023-03-03T09:20:24.571Z,92.60
2023-03-03T09:22:51.914Z,92.20
2023-03-03T09:25:34.334Z,91.90
2023-03-03T09:28:03.344Z,91.70
2023-03-03T09:30:40.286Z,91.60
2023-03-03T09:33:40.773Z,91.90
2023-03-03T09:36:23.760Z,91.60
2023-03-03T09:38:51.370Z,91.70
2023-03-03T09:41:45.941Z,91.50
2023-03-03T09:44:26.282Z,91.30
2023-03-03T09:47:05.585Z,91.20
2023-03-03T09:49:36.416Z,91.40
2023-03-03T09:52:26.698Z,91.30
2023-03-03T09:55:16.203Z,90.80
2023-03-03T09:58:10.807Z,90.50
2023-03-03T10:01:07.775Z,90.20
2023-03-03T10:03:54.540Z,89.30
2023-03-03T10:06:48.629Z,88.70
2023-03-03T10:09:38.033Z,88.00
2023-03-03T10:12:15.866Z,87.50
2023-03-03T10:15:03.432Z,86.60
2023-03-03T10:17:46.575Z,86.30
2023-03-03T10:20:49.744Z,85.70
2023-03-03T10:23:38.836Z,83.80
2023-03-03T10:26:45.818Z,83.60
2023-03-03T10:29:37.165Z,81.10
2023-03-03T10:32:27.095Z,81.00
2023-03-03T10:35:25.228Z,81.30
2023-03-03T10:38:14.948Z,81.30
2023-03-03T10:40:57.505Z,81.10
2023-03-03T10:43:52.562Z,82.00
2023-03-03T10:46:35.570Z,81.40
2023-03-03T10:49:08.676Z,81.20
2023-03-03T10:52:08.743Z,80.80
2023-03-03T10:54:47.924Z,79.20
2023-03-03T10:57:41.636Z,78.50
2023-03-03T11:00:24.226Z,78.20
2023-03-03T11:03:29.335Z,77.50
2023-03-03T11:06:05.376Z,75.00
2023-03-03T11:08:41.763Z,74.70
2023-03-03T11:11:36.554Z,75.10
2023-03-03T11:14:13.219Z,73.40
2023-03-03T11:16:49.948Z,73.00
2023-03-03T11:19:20.999Z,73.30
2023-03-03T11:22:11.262Z,74.60
2023-03-03T11:24:56.745Z,71.00
2023-03-03T11:27:39.364Z,70.70
2023-03-03T11:30:32.851Z,70.70
2023-03-03T11:33:05.326Z,71.70
2023-03-03T11:35:44.733Z,71.10
2023-03-03T11:38:36.742Z,71.30
2023-03-03T11:41:33.473Z,69.10
2023-03-03T11:44:27.513Z,70.20
2023-03-03T11:47:41.420Z,66.40
2023-03-03T11:50:35.013Z,66.20
2023-03-03T11:53:14.192Z,66.20
2023-03-03T11:55:45.536Z,66.80
2023-03-03T11:58:42.397Z,66.70
2023-03-03T12:01:20.931Z,67.10
2023-03-03T12:03:58.279Z,65.80
2023-03-03T12:06:34.294Z,65.90
2023-03-03T12:09:19.979Z,64.20
2023-03-03T12:11:49.879Z,65.00
2023-03-03T12:14:55.877Z,64.50
2023-03-03T12:17:55.867Z,64.50
2023-03-03T12:20:48.375Z,65.30
2023-03-03T12:23:30.470Z,66.10
2023-03-03T12:26:20.592Z,66.30
2023-03-03T12:29:00.172Z,64.10
2023-03-03T12:31:39.595Z,63.40
2023-03-03T12:34:16.314Z,64.20
2023-03-03T12:36:46.369Z,63.40
2023-03-03T12:39:33.815Z,63.90
2023-03-03T12:42:13.335Z,64.80
2023-03-03T12:45:02.056Z,64.70
2023-03-03T12:47:50.996Z,65.70
2023-03-03T12:50:27.394Z,64.90
2023-03-03T12:53:13.034Z,65.30
2023-03-03T12:55:54.486Z,64.40
2023-03-03T12:58:30.813Z,63.60
2023-03-03T13:01:01.319Z,64.10
2023-03-03T13:03:56.246Z,64.60
2023-03-03T13:06:35.061Z,65.00
2023-03-03T13:09:29.820Z,64.50
2023-03-03T13:12:18.394Z,63.60
2023-03-03T13:14:57.644Z,62.60
2023-03-03T13:17:34.395Z,63.30
2023-03-03T13:20:05.036Z,63.60
2023-03-03T13:22:40.262Z,62.90
2023-03-03T13:25:39.013Z,63.40
2023-03-03T13:28:42.934Z,63.90
2023-03-03T13:31:22.266Z,64.00
2023-03-03T13:33:58.421Z,63.00
2023-03-03T13:36:36.361Z,63.70
2023-03-03T13:39:32.685Z,63.20
2023-03-03T13:42:12.406Z,62.60
2023-03-03T13:44:42.884Z,62.90
2023-03-03T13:47:37.582Z,63.90
2023-03-03T13:50:19.260Z,64.30
2023-03-03T13:53:27.579Z,64.70
2023-03-03T13:56:24.121Z,65.00
2023-03-03T13:59:12.670Z,65.30
2023-03-03T14:01:55.623Z,63.90
2023-03-03T14:04:35.107Z,63.30
2023-03-03T14:07:34.476Z,61.90
2023-03-03T14:10:26.675Z,63.10
2023-03-03T14:13:16.696Z,64.10
2023-03-03T14:16:08.465Z,63.20
2023-03-03T14:19:00.937Z,62.10
2023-03-03T14:21:40.832Z,63.00
2023-03-03T14:24:25.466Z,64.50
2023-03-03T14:26:56.473Z,64.10
2023-03-03T14:29:33.068Z,64.80
2023-03-03T14:32:02.960Z,64.60
2023-03-03T14:34:41.467Z,63.40
2023-03-03T14:37:42.375Z,63.40
2023-03-03T14:40:09.707Z,63.50
2023-03-03T14:43:26.372Z,62.00
2023-03-03T14:45:55.309Z,63.00
2023-03-03T14:48:27.766Z,62.80
2023-03-03T14:51:04.584Z,63.40
2023-03-03T14:53:34.468Z,63.10
2023-03-03T14:56:22.948Z,62.10
2023-03-03T14:58:52.922Z,61.80
2023-03-03T15:01:33.658Z,62.80
2023-03-03T15:04:16.494Z,62.60
2023-03-03T15:06:49.493Z,63.10
2023-03-03T15:09:45.758Z,61.90
2023-03-03T15:12:26.063Z,62.10
2023-03-03T15:15:11.829Z,63.10
2023-03-03T15:17:50.253Z,63.10
2023-03-03T15:20:35.936Z,63.00
2023-03-03T15:23:28.794Z,63.10
2023-03-03T15:26:09.775Z,63.30
2023-03-03T15:28:55.906Z,62.90
2023-03-03T15:31:30.569Z,63.70
2023-03-03T15:34:00.790Z,64.00
2023-03-03T15:36:47.886Z,63.60
2023-03-03T15:39:39.692Z,63.60
2023-03-03T15:42:32.438Z,63.60
2023-03-03T15:45:23.064Z,64.70
2023-03-03T15:48:34.736Z,65.10
2023-03-03T15:51:21.018Z,65.70
2023-03-03T15:54:12.822Z,66.10
2023-03-03T15:56:50.343Z,66.60
2023-03-03T15:59:45.365Z,66.30
2023-03-03T16:02:30.715Z,66.70
2023-03-03T16:05:16.580Z,66.40
2023-03-03T16:08:17.707Z,66.20
2023-03-03T16:11:08.436Z,64.20
2023-03-03T16:13:59.784Z,65.50
2023-03-03T16:16:43.406Z,66.10
2023-03-03T16:19:46.409Z,66.80
2023-03-03T16:22:22.352Z,67.70
2023-03-03T16:25:16.145Z,68.80
2023-03-03T16:27:58.549Z,70.00
2023-03-03T16:30:33.231Z,70.50
2023-03-03T16:33:12.999Z,70.80
2023-03-03T16:35:48.331Z,71.20
2023-03-03T16:38:50.375Z,71.60
2023-03-03T16:41:58.755Z,72.10
2023-03-03T16:44:44.317Z,72.60
2023-03-03T16:47:29.496Z,72.90
2023-03-03T16:50:24.289Z,73.40
2023-03-03T16:53:06.161Z,73.40
2023-03-03T16:55:45.719Z,73.30
2023-03-03T16:59:04.710Z,73.50
2023-03-03T17:02:03.988Z,74.00
2023-03-03T17:05:13.885Z,74.50
2023-03-03T17:07:51.104Z,75.30
2023-03-03T17:10:30.380Z,75.40
2023-03-03T17:13:20.302Z,75.60
2023-03-03T17:16:14.876Z,76.50
2023-03-03T17:18:42.287Z,76.00
2023-03-03T17:21:45.588Z,76.30
2023-03-03T17:24:35.310Z,76.40
2023-03-03T17:27:12.973Z,76.60
2023-03-03T17:29:55.619Z,76.80
2023-03-03T17:32:38.114Z,77.30
2023-03-03T17:35:24.206Z,77.50
2023-03-03T17:38:27.083Z,77.70
2023-03-03T17:41:05.202Z,78.10
2023-03-03T17:43:46.225Z,77.80
2023-03-03T17:46:29.831Z,77.60
2023-03-03T17:49:18.445Z,77.80
2023-03-03T17:52:12.198Z,77.50
2023-03-03T17:55:07.469Z,77.40
2023-03-03T17:58:04.291Z,77.30
2023-03-03T18:00:38.056Z,77.30
2023-03-03T18:03:44.290Z,77.30
2023-03-03T18:06:37.040Z,77.50
2023-03-03T18:09:22.780Z,77.20
2023-03-03T18:12:19.623Z,77.10
2023-03-03T18:15:11.272Z,77.00
2023-03-03T18:17:47.821Z,76.80
2023-03-03T18:21:01.681Z,76.60
2023-03-03T18:23:35.597Z,76.80
2023-03-03T18:26:10.068Z,76.80
2023-03-03T18:28:49.639Z,77.10
2023-03-03T18:31:22.129Z,77.60
2023-03-03T18:34:20.559Z,77.90
2023-03-03T18:36:59.035Z,78.50
2023-03-03T18:39:49.086Z,78.80
2023-03-03T18:42:16.377Z,79.20
2023-03-03T18:44:44.715Z,79.40
2023-03-03T18:47:15.898Z,79.80
2023-03-03T18:49:57.237Z,80.00
2023-03-03T18:52:33.151Z,80.10
2023-03-03T18:55:22.756Z,80.80
2023-03-03T18:58:42.155Z,80.50
2023-03-03T19:01:35.223Z,80.80
2023-03-03T19:04:16.860Z,80.70
2023-03-03T19:06:44.727Z,80.70
2023-03-03T19:09:18.007Z,80.80
2023-03-03T19:11:54.470Z,81.00
2023-03-03T19:14:39.036Z,81.00
2023-03-03T19:17:18.805Z,81.00
2023-03-03T19:20:08.045Z,80.80
2023-03-03T19:23:08.402Z,80.50
2023-03-03T19:25:38.205Z,80.50
2023-03-03T19:28:05.298Z,80.50
2023-03-03T19:31:17.749Z,80.50
2023-03-03T19:33:55.764Z,80.50
2023-03-03T19:37:07.168Z,80.50
2023-03-03T19:39:52.804Z,80.70
2023-03-03T19:42:42.154Z,80.70
2023-03-03T19:45:31.159Z,80.80
2023-03-03T19:48:14.712Z,80.80
2023-03-03T19:51:13.108Z,80.90
2023-03-03T19:53:58.948Z,80.80
2023-03-03T19:56:52.892Z,80.70
2023-03-03T19:59:57.990Z,80.50
2023-03-03T20:02:33.241Z,80.80
2023-03-03T20:05:38.001Z,80.20
2023-03-03T20:08:50.165Z,80.10
2023-03-03T20:11:46.508Z,80.20
2023-03-03T20:14:38.486Z,80.20
2023-03-03T20:17:25.004Z,80.20
2023-03-03T20:19:59.926Z,80.10
2023-03-03T20:22:43.534Z,80.10
2023-03-03T20:25:24.962Z,80.20
2023-03-03T20:28:06.864Z,80.30
2023-03-03T20:30:52.197Z,80.50
2023-03-03T20:33:40.371Z,80.90
2023-03-03T20:36:16.291Z,81.10
2023-03-03T20:38:57.482Z,81.30
2023-03-03T20:41:46.282Z,81.50
2023-03-03T20:44:34.906Z,81.70
2023-03-03T20:47:25.997Z,81.80
2023-03-03T20:50:12.239Z,82.10
2023-03-03T20:52:55.790Z,82.40
2023-03-03T20:55:42.008Z,82.70
2023-03-03T20:58:28.211Z,83.10
2023-03-03T21:01:04.592Z,83.10
2023-03-03T21:03:42.198Z,83.30
2023-03-03T21:06:15.721Z,83.50
2023-03-03T21:08:54.891Z,83.50
2023-03-03T21:11:42.661Z,83.70
2023-03-03T21:14:27.984Z,84.00
2023-03-03T21:16:58.478Z,84.10
2023-03-03T21:19:28.797Z,84.20
2023-03-03T21:21:56.826Z,84.30
2023-03-03T21:24:49.183Z,84.60
2023-03-03T21:27:28.351Z,84.50
2023-03-03T21:30:05.961Z,84.30
2023-03-03T21:32:41.581Z,84.20
2023-03-03T21:35:13.128Z,84.10
2023-03-03T21:37:57.522Z,84.30
2023-03-03T21:40:27.806Z,84.60
2023-03-03T21:42:57.971Z,85.20
2023-03-03T21:45:26.392Z,86.40
2023-03-03T21:47:55.519Z,86.50
2023-03-03T21:50:23.108Z,86.40
2023-03-03T21:52:50.407Z,86.50
2023-03-03T21:55:17.688Z,86.40
2023-03-03T21:57:45.054Z,86.30
2023-03-03T22:00:12.778Z,86.50
2023-03-03T22:02:39.883Z,86.70
2023-03-03T22:05:08.051Z,86.60
2023-03-03T22:07:35.635Z,86.60
2023-03-03T22:10:03.204Z,86.80
2023-03-03T22:12:31.331Z,86.90
2023-03-03T22:14:58.341Z,86.90
2023-03-03T22:17:25.881Z,86.80
2023-03-03T22:19:53.674Z,86.80
2023-03-03T22:22:20.968Z,86.80
2023-03-03T22:24:48.218Z,86.90
2023-03-03T22:27:16.048Z,87.30
2023-03-03T22:29:43.539Z,87.60
2023-03-03T22:32:11.957Z,87.80
2023-03-03T22:34:42.440Z,87.90
2023-03-03T22:37:10.255Z,87.90
2023-03-03T22:39:42.672Z,87.90
2023-03-03T22:42:12.740Z,88.00
2023-03-03T22:44:40.396Z,88.10
2023-03-03T22:47:07.655Z,88.10
2023-03-03T22:49:34.751Z,88.10
2023-03-03T22:52:02.929Z,88.20
2023-03-03T22:54:30.063Z,88.30
2023-03-03T22:56:57.377Z,88.30
2023-03-03T22:59:24.756Z,88.20
2023-03-03T23:01:52.052Z,88.20
2023-03-03T23:04:19.220Z,88.30
2023-03-03T23:06:46.308Z,88.60
2023-03-03T23:09:13.576Z,88.90
2023-03-03T23:11:44.187Z,88.90
2023-03-03T23:14:11.780Z,88.80
2023-03-03T23:16:38.752Z,89.00
2023-03-03T23:19:05.919Z,89.20
2023-03-03T23:21:32.873Z,89.30
2023-03-03T23:24:00.231Z,89.40
2023-03-03T23:26:27.267Z,89.50
2023-03-03T23:28:54.615Z,89.50
2023-03-03T23:31:21.849Z,89.40
2023-03-03T23:33:49.112Z,89.70
2023-03-03T23:36:16.330Z,89.70
2023-03-03T23:38:43.800Z,89.70
2023-03-03T23:41:10.775Z,89.90
2023-03-03T23:43:37.901Z,90.00
2023-03-03T23:46:05.082Z,90.00
2023-03-03T23:48:32.678Z,90.20
2023-03-03T23:51:01.502Z,90.60
2023-03-03T23:53:29.039Z,90.70
2023-03-03T23:55:56.087Z,90.60
2023-03-03T23:58:23.344Z,90.60
